createdAt,value
2022-09-12T00:01:25.879Z,7.73
2022-09-12T00:03:55.039Z,7.40
2022-09-12T00:06:27.511Z,9.20
2022-09-12T00:09:00.249Z,8.43
2022-09-12T00:11:29.521Z,8.80
2022-09-12T00:13:58.828Z,8.60
2022-09-12T00:16:28.939Z,9.47
2022-09-12T00:18:57.947Z,8.97
2022-09-12T00:21:26.319Z,8.83
2022-09-12T00:23:54.790Z,8.97
2022-09-12T00:26:24.668Z,8.77
2022-09-12T00:28:55.654Z,9.57
2022-09-12T00:31:28.748Z,9.10
2022-09-12T00:34:00.797Z,9.73
2022-09-12T00:36:30.293Z,8.30
2022-09-12T00:38:59.237Z,9.60
2022-09-12T00:41:31.472Z,10.07
2022-09-12T00:44:01.577Z,9.57
2022-09-12T00:46:36.251Z,9.10
2022-09-12T00:49:10.325Z,9.40
2022-09-12T00:51:40.115Z,10.37
2022-09-12T00:54:12.614Z,9.83
2022-09-12T00:56:47.044Z,9.93
2022-09-12T00:59:19.192Z,9.70
2022-09-12T01:01:49.625Z,10.20
2022-09-12T01:04:21.157Z,9.93
2022-09-12T01:06:50.963Z,10.13
2022-09-12T01:09:22.873Z,9.90
2022-09-12T01:11:53.974Z,9.20
2022-09-12T01:14:22.451Z,10.57
2022-09-12T01:16:51.808Z,10.10
2022-09-12T01:20:10.844Z,9.50
2022-09-12T01:23:10.874Z,9.87
2022-09-12T01:25:51.187Z,10.33
2022-09-12T01:28:48.625Z,8.63
2022-09-12T01:31:22.876Z,8.87
2022-09-12T01:34:06.154Z,9.90
2022-09-12T01:36:42.274Z,8.83
2022-09-12T01:39:21.938Z,10.00
2022-09-12T01:41:56.988Z,9.60
2022-09-12T01:44:31.278Z,10.00
2022-09-12T01:47:08.828Z,10.43
2022-09-12T01:49:43.150Z,9.80
2022-09-12T01:52:18.612Z,9.20
2022-09-12T01:54:51.255Z,9.00
2022-09-12T01:57:26.317Z,9.63
2022-09-12T02:00:00.436Z,10.53
2022-09-12T02:02:36.806Z,10.20
2022-09-12T02:05:10.379Z,9.23
2022-09-12T02:07:41.705Z,8.90
2022-09-12T02:10:15.156Z,9.30
2022-09-12T02:12:48.760Z,9.80
2022-09-12T02:15:19.834Z,9.60
2022-09-12T02:17:53.078Z,9.90
2022-09-12T02:20:44.341Z,10.53
2022-09-12T02:23:18.693Z,10.47
2022-09-12T02:25:50.110Z,11.30
2022-09-12T02:28:22.927Z,10.90
2022-09-12T02:30:57.636Z,9.80
2022-09-12T02:33:34.442Z,10.67
2022-09-12T02:36:13.617Z,9.70
2022-09-12T02:38:46.656Z,10.40
2022-09-12T02:41:18.241Z,10.10
2022-09-12T02:43:47.140Z,9.13
2022-09-12T02:46:20.101Z,10.73
2022-09-12T02:48:49.886Z,9.93
2022-09-12T02:51:23.399Z,10.20
2022-09-12T02:53:53.994Z,11.03
2022-09-12T02:56:26.884Z,10.87
2022-09-12T02:58:57.119Z,10.77
2022-09-12T03:01:42.582Z,9.50
2022-09-12T03:04:28.472Z,10.67
2022-09-12T03:07:12.455Z,11.30
2022-09-12T03:09:48.720Z,10.20
2022-09-12T03:12:36.613Z,10.30
2022-09-12T03:15:22.932Z,10.47
2022-09-12T03:18:05.725Z,10.40
2022-09-12T03:20:46.645Z,11.80
2022-09-12T03:23:23.305Z,10.20
2022-09-12T03:26:00.698Z,9.07
2022-09-12T03:28:30.101Z,9.57
2022-09-12T03:30:59.748Z,10.57
2022-09-12T03:33:28.354Z,10.20
2022-09-12T03:35:59.217Z,10.80
2022-09-12T03:38:33.164Z,9.40
2022-09-12T03:41:02.564Z,10.43
2022-09-12T03:43:32.010Z,9.10
2022-09-12T03:46:00.537Z,8.90
2022-09-12T03:48:28.925Z,8.57
2022-09-12T03:51:01.753Z,10.43
2022-09-12T03:53:31.137Z,10.13
2022-09-12T03:55:59.798Z,9.83
2022-09-12T03:58:32.277Z,9.47
2022-09-12T04:01:00.897Z,9.80
2022-09-12T04:03:29.168Z,10.67
2022-09-12T04:06:00.776Z,10.53
2022-09-12T04:08:29.275Z,10.60
2022-09-12T04:11:06.818Z,10.60
2022-09-12T04:13:36.452Z,9.60
2022-09-12T04:16:05.747Z,10.13
2022-09-12T04:18:34.436Z,10.50
2022-09-12T04:21:08.055Z,9.27
2022-09-12T04:23:38.541Z,9.87
2022-09-12T04:26:07.733Z,10.00
2022-09-12T04:28:37.064Z,10.80
2022-09-12T04:31:06.217Z,9.83
2022-09-12T04:33:34.457Z,10.10
2022-09-12T04:36:09.864Z,9.63
2022-09-12T04:38:39.215Z,10.03
2022-09-12T04:41:14.673Z,9.90
2022-09-12T04:43:46.331Z,11.33
2022-09-12T04:46:17.441Z,9.40
2022-09-12T04:48:46.017Z,9.90
2022-09-12T04:51:17.614Z,9.80
2022-09-12T04:53:49.982Z,9.47
2022-09-12T04:56:18.500Z,10.80
2022-09-12T04:58:47.448Z,10.20
2022-09-12T05:01:21.866Z,11.00
2022-09-12T05:03:51.565Z,11.03
2022-09-12T05:06:24.976Z,10.83
2022-09-12T05:08:56.016Z,10.60
2022-09-12T05:11:41.242Z,11.30
2022-09-12T05:14:15.773Z,10.47
2022-09-12T05:16:48.544Z,10.77
2022-09-12T05:19:17.421Z,10.60
2022-09-12T05:21:47.604Z,10.60
2022-09-12T05:24:16.162Z,11.73
2022-09-12T05:26:46.662Z,11.50
2022-09-12T05:29:15.100Z,11.00
2022-09-12T05:31:43.369Z,11.17
2022-09-12T05:34:11.557Z,10.80
2022-09-12T05:36:41.132Z,10.90
2022-09-12T05:39:12.478Z,10.20
2022-09-12T05:41:42.611Z,10.03
2022-09-12T05:44:14.368Z,10.60
2022-09-12T05:46:45.064Z,9.50
2022-09-12T05:49:15.503Z,11.07
2022-09-12T05:51:45.688Z,11.90
2022-09-12T05:54:18.775Z,11.10
2022-09-12T05:56:48.099Z,10.30
2022-09-12T05:59:18.051Z,11.07
2022-09-12T06:01:46.750Z,11.57
2022-09-12T06:04:15.167Z,12.20
2022-09-12T06:06:45.609Z,12.33
2022-09-12T06:09:16.315Z,11.67
2022-09-12T06:11:45.734Z,11.13
2022-09-12T06:14:17.007Z,12.33
2022-09-12T06:16:45.250Z,11.07
2022-09-12T06:19:17.845Z,10.77
2022-09-12T06:21:46.472Z,11.50
2022-09-12T06:24:15.888Z,11.13
2022-09-12T06:26:44.778Z,10.87
2022-09-12T06:29:13.720Z,10.90
2022-09-12T06:31:44.578Z,12.70
2022-09-12T06:34:15.417Z,10.80
2022-09-12T06:36:45.253Z,11.33
2022-09-12T06:39:16.319Z,11.37
2022-09-12T06:41:44.694Z,10.10
2022-09-12T06:44:16.134Z,10.97
2022-09-12T06:46:45.162Z,9.60
2022-09-12T06:49:13.744Z,10.80
2022-09-12T06:51:43.430Z,10.20
2022-09-12T06:54:15.769Z,10.50
2022-09-12T06:56:44.306Z,10.40
2022-09-12T06:59:12.657Z,11.70
2022-09-12T07:01:41.926Z,11.10
2022-09-12T07:04:10.615Z,10.63
2022-09-12T07:06:40.640Z,11.13
2022-09-12T07:09:12.738Z,10.93
2022-09-12T07:11:43.621Z,10.50
2022-09-12T07:14:14.434Z,9.97
2022-09-12T07:16:43.186Z,10.33
2022-09-12T07:19:12.415Z,11.57
2022-09-12T07:21:41.567Z,9.70
2022-09-12T07:24:11.154Z,12.60
2022-09-12T07:26:42.260Z,10.47
2022-09-12T07:29:35.779Z,9.90
2022-09-12T07:32:05.623Z,10.10
2022-09-12T07:34:33.932Z,10.13
2022-09-12T07:37:02.264Z,9.73
2022-09-12T07:39:32.862Z,10.17
2022-09-12T07:42:03.285Z,10.40
2022-09-12T07:44:31.468Z,9.37
2022-09-12T07:46:59.946Z,9.47
2022-09-12T07:49:30.744Z,10.50
2022-09-12T07:51:59.176Z,9.30
2022-09-12T07:54:27.784Z,11.87
2022-09-12T07:56:56.529Z,13.97
2022-09-12T07:59:48.904Z,11.60
2022-09-12T08:02:17.568Z,9.97
2022-09-12T08:04:48.414Z,10.10
2022-09-12T08:07:18.433Z,9.13
2022-09-12T08:09:46.805Z,11.90
2022-09-12T08:12:15.410Z,10.70
2022-09-12T08:14:46.017Z,10.37
2022-09-12T08:17:14.552Z,9.93
2022-09-12T08:19:42.792Z,10.33
2022-09-12T08:22:11.276Z,9.30
2022-09-12T08:24:40.581Z,10.50
2022-09-12T08:27:12.413Z,9.10
2022-09-12T08:29:45.591Z,11.37
2022-09-12T08:32:15.566Z,10.73
2022-09-12T08:34:44.208Z,10.93
2022-09-12T08:37:12.635Z,8.40
2022-09-12T08:39:41.287Z,9.30
2022-09-12T08:42:20.354Z,9.60
2022-09-12T08:45:03.871Z,9.00
2022-09-12T08:47:37.489Z,10.17
2022-09-12T08:50:14.810Z,10.93
2022-09-12T08:52:52.109Z,9.47
2022-09-12T08:55:34.110Z,8.43
2022-09-12T08:58:04.490Z,10.50
2022-09-12T09:00:42.964Z,9.47
2022-09-12T09:03:31.287Z,8.30
2022-09-12T09:06:07.382Z,9.70
2022-09-12T09:08:49.035Z,8.30
2022-09-12T09:11:31.417Z,9.40
2022-09-12T09:14:36.207Z,9.00
2022-09-12T09:17:08.550Z,8.70
2022-09-12T09:20:01.038Z,9.10
2022-09-12T09:22:39.834Z,8.87
2022-09-12T09:25:23.012Z,9.03
2022-09-12T09:27:58.421Z,8.00
2022-09-12T09:30:26.791Z,8.10
2022-09-12T09:32:58.254Z,8.03
2022-09-12T09:35:40.253Z,7.43
2022-09-12T09:38:21.314Z,7.50
2022-09-12T09:40:59.446Z,7.30
2022-09-12T09:43:29.110Z,7.73
2022-09-12T09:45:59.422Z,7.73
2022-09-12T09:48:31.171Z,7.13
2022-09-12T09:51:07.222Z,8.60
2022-09-12T09:53:42.461Z,7.37
2022-09-12T09:56:18.365Z,11.20
2022-09-12T09:58:47.876Z,22.03
2022-09-12T10:01:18.265Z,8.40
2022-09-12T10:03:51.854Z,7.00
2022-09-12T10:06:31.025Z,8.80
2022-09-12T10:09:22.034Z,7.50
2022-09-12T10:11:51.929Z,7.80
2022-09-12T10:14:36.763Z,6.80
2022-09-12T10:17:33.256Z,7.80
2022-09-12T10:20:21.603Z,7.57
2022-09-12T10:22:52.789Z,6.47
2022-09-12T10:25:21.702Z,6.77
2022-09-12T10:27:56.787Z,7.77
2022-09-12T10:30:28.371Z,6.70
2022-09-12T10:33:06.489Z,7.03
2022-09-12T10:35:47.087Z,7.00
2022-09-12T10:38:23.952Z,7.10
2022-09-12T10:40:59.520Z,6.37
2022-09-12T10:43:30.984Z,11.23
2022-09-12T10:46:00.346Z,7.37
2022-09-12T10:48:31.846Z,6.13
2022-09-12T10:51:00.565Z,6.67
2022-09-12T10:53:34.673Z,6.80
2022-09-12T10:56:12.095Z,6.37
2022-09-12T10:59:06.907Z,6.23
2022-09-12T11:01:42.765Z,6.97
2022-09-12T11:04:23.592Z,6.50
2022-09-12T11:08:33.087Z,5.93
2022-09-12T11:11:10.242Z,6.20
2022-09-12T11:13:58.999Z,5.50
2022-09-12T11:16:34.556Z,5.90
2022-09-12T11:19:29.223Z,6.33
2022-09-12T11:22:19.963Z,5.80
2022-09-12T11:25:18.011Z,6.50
2022-09-12T11:28:04.378Z,6.00
2022-09-12T11:30:40.548Z,5.10
2022-09-12T11:33:21.785Z,6.03
2022-09-12T11:35:55.414Z,5.70
2022-09-12T11:39:02.825Z,5.73
2022-09-12T11:41:36.961Z,6.10
2022-09-12T11:44:18.377Z,5.30
2022-09-12T11:46:51.200Z,6.20
2022-09-12T11:49:35.555Z,6.23
2022-09-12T11:52:14.348Z,5.53
2022-09-12T11:54:53.348Z,6.13
2022-09-12T11:57:31.828Z,5.63
2022-09-12T12:00:04.194Z,6.27
2022-09-12T12:02:36.919Z,5.30
2022-09-12T12:05:20.586Z,5.63
2022-09-12T12:07:55.957Z,5.63
2022-09-12T12:10:28.759Z,6.20
2022-09-12T12:13:01.033Z,5.23
2022-09-12T12:15:30.967Z,5.13
2022-09-12T12:18:08.460Z,6.20
2022-09-12T12:20:37.371Z,6.93
2022-09-12T12:23:06.028Z,5.57
2022-09-12T12:25:51.797Z,14.73
2022-09-12T12:28:55.672Z,8.00
2022-09-12T12:31:25.861Z,6.03
2022-09-12T12:34:24.106Z,5.47
2022-09-12T12:36:52.564Z,6.30
2022-09-12T12:40:10.088Z,5.40
2022-09-12T12:43:21.884Z,6.00
2022-09-12T12:46:31.685Z,5.90
2022-09-12T12:49:24.138Z,5.70
2022-09-12T12:52:03.059Z,5.87
2022-09-12T12:54:35.754Z,5.70
2022-09-12T12:57:08.721Z,5.80
2022-09-12T12:59:37.474Z,6.50
2022-09-12T13:02:08.706Z,6.03
2022-09-12T13:04:45.463Z,5.60
2022-09-12T13:07:28.107Z,5.07
2022-09-12T13:09:57.399Z,6.50
2022-09-12T13:12:28.557Z,5.97
2022-09-12T13:14:58.459Z,5.70
2022-09-12T13:17:34.584Z,5.80
2022-09-12T13:20:32.617Z,6.50
2022-09-12T13:23:00.902Z,6.17
2022-09-12T13:25:31.937Z,5.60
2022-09-12T13:28:17.042Z,5.50
2022-09-12T13:30:47.805Z,5.83
2022-09-12T13:33:23.146Z,5.13
2022-09-12T13:36:20.454Z,6.17
2022-09-12T13:38:59.471Z,6.37
2022-09-12T13:41:46.785Z,5.73
2022-09-12T13:44:20.146Z,5.50
2022-09-12T13:46:49.144Z,6.33
2022-09-12T13:49:22.750Z,5.80
2022-09-12T13:52:00.929Z,6.33
2022-09-12T13:54:29.620Z,6.30
2022-09-12T13:56:59.342Z,6.00
2022-09-12T13:59:28.172Z,5.67
2022-09-12T14:01:56.607Z,5.60
2022-09-12T14:04:44.715Z,5.17
2022-09-12T14:07:18.929Z,5.30
2022-09-12T14:09:53.736Z,5.80
2022-09-12T14:12:26.933Z,5.07
2022-09-12T14:14:55.590Z,5.60
2022-09-12T14:17:30.036Z,6.00
2022-09-12T14:20:18.628Z,5.13
2022-09-12T14:22:51.250Z,5.73
2022-09-12T14:25:21.752Z,5.87
2022-09-12T14:27:54.094Z,5.33
2022-09-12T14:30:25.865Z,5.23
2022-09-12T14:33:19.095Z,5.23
2022-09-12T14:35:50.031Z,6.07
2022-09-12T14:38:32.375Z,4.97
2022-09-12T14:41:03.010Z,5.70
2022-09-12T14:43:33.494Z,5.47
2022-09-12T14:49:51.677Z,13.97
2022-09-12T14:52:27.845Z,7.27
2022-09-12T14:55:02.507Z,6.13
2022-09-12T14:57:39.034Z,6.77
2022-09-12T15:00:23.861Z,5.70
2022-09-12T15:02:55.595Z,5.80
2022-09-12T15:05:39.476Z,5.60
2022-09-12T15:08:44.031Z,6.47
2022-09-12T15:14:20.236Z,5.80
2022-09-12T15:16:48.729Z,5.80
2022-09-12T15:19:17.074Z,5.30
2022-09-12T15:21:45.850Z,5.70
2022-09-12T15:24:14.069Z,5.73
2022-09-12T15:26:44.222Z,5.70
2022-09-12T15:29:18.465Z,5.70
2022-09-12T15:32:03.037Z,5.80
2022-09-12T15:34:32.338Z,5.87
2022-09-12T15:37:00.582Z,5.23
2022-09-12T15:39:28.864Z,5.93
2022-09-12T15:41:58.691Z,5.60
2022-09-12T15:44:26.966Z,5.23
2022-09-12T15:46:56.992Z,5.70
2022-09-12T15:49:25.356Z,5.47
2022-09-12T15:51:53.387Z,5.77
2022-09-12T15:54:22.357Z,6.13
2022-09-12T15:56:51.047Z,5.57
2022-09-12T15:59:33.566Z,6.07
2022-09-12T16:05:09.676Z,5.40
2022-09-12T16:07:38.406Z,5.50
2022-09-12T16:10:07.374Z,5.40
2022-09-12T16:12:36.933Z,5.83
2022-09-12T16:15:08.565Z,5.87
2022-09-12T16:17:36.730Z,6.10
2022-09-12T16:20:34.696Z,5.77
2022-09-12T16:23:03.149Z,5.40
2022-09-12T16:25:31.271Z,5.63
2022-09-12T16:28:05.951Z,5.20
2022-09-12T16:30:36.598Z,6.27
2022-09-12T16:33:05.643Z,6.17
2022-09-12T16:35:34.891Z,5.53
2022-09-12T16:38:03.280Z,5.70
2022-09-12T16:40:31.686Z,5.47
2022-09-12T16:42:59.942Z,5.87
2022-09-12T16:45:28.305Z,5.20
2022-09-12T16:47:58.078Z,5.20
2022-09-12T16:50:26.336Z,5.50
2022-09-12T16:52:55.026Z,5.63
2022-09-12T16:55:27.964Z,5.47
2022-09-12T16:57:56.381Z,5.33
2022-09-12T17:00:24.562Z,6.30
2022-09-12T17:02:53.222Z,5.90
2022-09-12T17:05:23.170Z,6.13
2022-09-12T17:07:52.218Z,6.67
2022-09-12T17:10:21.083Z,7.80
2022-09-12T17:12:50.200Z,8.70
2022-09-12T17:15:20.838Z,11.37
2022-09-12T17:17:49.373Z,8.47
2022-09-12T17:20:50.711Z,7.27
2022-09-12T17:23:19.375Z,5.47
2022-09-12T17:25:49.361Z,5.80
2022-09-12T17:28:17.997Z,5.60
2022-09-12T17:30:46.280Z,6.20
2022-09-12T17:33:14.844Z,5.30
2022-09-12T17:35:43.286Z,5.90
2022-09-12T17:38:18.640Z,5.10
2022-09-12T17:40:59.053Z,5.60
2022-09-12T17:43:27.992Z,5.67
2022-09-12T17:45:57.748Z,5.30
2022-09-12T17:48:25.990Z,6.27
2022-09-12T17:50:54.312Z,6.40
2022-09-12T17:53:24.107Z,6.20
2022-09-12T17:55:54.450Z,6.00
2022-09-12T17:58:23.598Z,6.60
2022-09-12T18:01:09.405Z,6.37
2022-09-12T18:03:37.698Z,6.27
2022-09-12T18:06:06.199Z,5.90
2022-09-12T18:08:36.243Z,6.40
2022-09-12T18:11:08.448Z,7.10
2022-09-12T18:13:36.988Z,6.13
2022-09-12T18:16:08.962Z,7.50
2022-09-12T18:18:40.363Z,7.00
2022-09-12T18:21:11.096Z,6.37
2022-09-12T18:23:41.194Z,6.20
2022-09-12T18:26:14.304Z,5.90
2022-09-12T18:28:44.381Z,6.50
2022-09-12T18:31:16.454Z,6.37
2022-09-12T18:33:45.099Z,6.33
2022-09-12T18:36:15.091Z,6.47
2022-09-12T18:38:45.896Z,6.60
2022-09-12T18:41:15.885Z,5.97
2022-09-12T18:43:44.705Z,5.77
2022-09-12T18:46:15.971Z,6.03
2022-09-12T18:48:44.811Z,6.80
2022-09-12T18:51:15.904Z,6.50
2022-09-12T18:53:52.039Z,6.33
2022-09-12T18:56:32.458Z,5.30
2022-09-12T18:59:02.856Z,6.00
2022-09-12T19:01:32.793Z,6.17
2022-09-12T19:04:04.823Z,5.83
2022-09-12T19:06:35.559Z,6.40
2022-09-12T19:09:08.310Z,6.20
2022-09-12T19:11:38.191Z,5.90
2022-09-12T19:14:07.038Z,5.03
2022-09-12T19:16:35.859Z,5.63
2022-09-12T19:19:04.219Z,6.20
2022-09-12T19:21:36.509Z,6.57
2022-09-12T19:24:10.080Z,6.63
2022-09-12T19:26:39.210Z,5.90
2022-09-12T19:29:08.593Z,5.50
2022-09-12T19:31:37.027Z,6.10
2022-09-12T19:34:07.273Z,6.50
2022-09-12T19:36:51.689Z,6.60
2022-09-12T19:39:21.645Z,6.80
2022-09-12T19:41:50.158Z,6.30
2022-09-12T19:44:19.432Z,6.03
2022-09-12T19:46:49.086Z,5.30
2022-09-12T19:49:17.555Z,5.90
2022-09-12T19:51:45.733Z,5.30
2022-09-12T19:54:14.099Z,6.60
2022-09-12T19:56:43.895Z,5.40
2022-09-12T19:59:14.527Z,5.57
2022-09-12T20:01:43.291Z,5.40
2022-09-12T20:04:11.761Z,6.20
2022-09-12T20:06:39.967Z,5.40
2022-09-12T20:09:08.226Z,6.17
2022-09-12T20:11:38.392Z,6.23
2022-09-12T20:14:08.082Z,5.27
2022-09-12T20:16:36.308Z,5.73
2022-09-12T20:19:07.277Z,5.83
2022-09-12T20:21:36.507Z,6.90
2022-09-12T20:24:06.929Z,5.23
2022-09-12T20:26:35.940Z,5.30
2022-09-12T20:29:04.838Z,6.47
2022-09-12T20:31:35.664Z,5.57
2022-09-12T20:34:04.165Z,5.50
2022-09-12T20:36:32.282Z,5.27
2022-09-12T20:39:02.846Z,6.43
2022-09-12T20:41:32.883Z,5.67
2022-09-12T20:44:01.193Z,5.47
2022-09-12T20:46:30.315Z,5.10
2022-09-12T20:49:00.532Z,4.77
2022-09-12T20:51:30.581Z,5.20
2022-09-12T20:54:00.814Z,8.93
2022-09-12T20:56:31.035Z,3.70
2022-09-12T20:59:00.074Z,3.70
2022-09-12T21:01:30.329Z,4.20
2022-09-12T21:04:01.140Z,4.13
2022-09-12T21:06:29.854Z,3.90
2022-09-12T21:09:00.672Z,4.37
2022-09-12T21:11:29.832Z,4.20
2022-09-12T21:13:59.401Z,5.07
2022-09-12T21:16:27.635Z,4.17
2022-09-12T21:19:00.950Z,4.73
2022-09-12T21:21:29.378Z,4.23
2022-09-12T21:24:00.569Z,3.50
2022-09-12T21:26:28.738Z,4.43
2022-09-12T21:28:57.622Z,3.73
2022-09-12T21:31:26.736Z,3.90
2022-09-12T21:33:55.332Z,3.67
2022-09-12T21:36:26.189Z,4.40
2022-09-12T21:38:54.313Z,4.37
2022-09-12T21:41:22.670Z,4.20
2022-09-12T21:43:50.975Z,3.73
2022-09-12T21:46:19.153Z,4.10
2022-09-12T21:48:47.404Z,4.70
2022-09-12T21:51:15.777Z,3.97
2022-09-12T21:53:45.528Z,4.00
2022-09-12T21:56:13.834Z,4.90
2022-09-12T21:58:42.103Z,5.00
2022-09-12T22:01:12.779Z,4.60
2022-09-12T22:03:43.223Z,4.83
2022-09-12T22:06:11.476Z,4.83
2022-09-12T22:08:40.691Z,4.90
2022-09-12T22:11:11.524Z,5.70
2022-09-12T22:13:42.030Z,4.77
2022-09-12T22:16:10.652Z,5.30
2022-09-12T22:18:39.403Z,5.70
2022-09-12T22:21:12.513Z,6.43
2022-09-12T22:23:58.450Z,5.70
2022-09-12T22:26:29.416Z,5.70
2022-09-12T22:28:57.767Z,4.80
2022-09-12T22:31:27.130Z,4.90
2022-09-12T22:33:57.318Z,6.03
2022-09-12T22:36:30.482Z,5.20
2022-09-12T22:38:59.426Z,5.73
2022-09-12T22:41:29.335Z,5.87
2022-09-12T22:43:58.748Z,5.30
2022-09-12T22:46:27.629Z,5.10
2022-09-12T22:48:56.173Z,4.87
2022-09-12T22:51:24.620Z,4.93
2022-09-12T22:53:53.146Z,5.27
2022-09-12T22:56:21.310Z,4.50
2022-09-12T22:58:51.183Z,4.83
2022-09-12T23:01:19.811Z,4.93
2022-09-12T23:03:48.573Z,4.93
2022-09-12T23:06:17.721Z,4.20
2022-09-12T23:08:45.877Z,4.80
2022-09-12T23:11:17.160Z,5.30
2022-09-12T23:13:47.691Z,5.13
2022-09-12T23:16:19.714Z,5.10
2022-09-12T23:18:49.105Z,4.73
2022-09-12T23:21:24.009Z,5.00
2022-09-12T23:23:52.577Z,4.90
2022-09-12T23:26:24.961Z,5.60
2022-09-12T23:28:55.312Z,4.30
2022-09-12T23:31:29.839Z,5.07
2022-09-12T23:33:59.776Z,5.53
2022-09-12T23:36:28.058Z,4.97
2022-09-12T23:38:57.012Z,5.10
2022-09-12T23:41:25.763Z,4.63
2022-09-12T23:43:53.888Z,4.70
2022-09-12T23:46:22.673Z,5.50
2022-09-12T23:48:53.297Z,5.70
2022-09-12T23:51:23.075Z,6.47
2022-09-12T23:53:51.510Z,6.00
2022-09-12T23:56:19.684Z,6.10
2022-09-12T23:58:49.422Z,6.53
